createdAt,value
2019-06-07T00:00:45.207Z,14.80
2019-06-07T00:03:46.933Z,14.70
2019-06-07T00:06:48.254Z,14.70
2019-06-07T00:09:50.137Z,14.60
2019-06-07T00:12:51.423Z,14.50
2019-06-07T00:15:53.497Z,14.50
2019-06-07T00:18:54.734Z,14.40
2019-06-07T00:25:00.186Z,14.30
2019-06-07T00:28:01.405Z,14.30
2019-06-07T00:31:02.927Z,14.30
2019-06-07T00:34:04.269Z,14.30
2019-06-07T00:37:07.075Z,14.30
2019-06-07T00:40:17.373Z,14.20
2019-06-07T00:43:16.889Z,14.20
2019-06-07T00:46:18.839Z,14.20
2019-06-07T00:49:36.111Z,14.10
2019-06-07T00:53:11.695Z,14.10
2019-06-07T00:55:28.614Z,14.10
2019-06-07T00:58:30.751Z,14.10
2019-06-07T01:01:31.973Z,14.00
2019-06-07T01:04:33.340Z,13.90
2019-06-07T01:07:34.761Z,13.90
2019-06-07T01:10:53.022Z,13.90
2019-06-07T01:13:39.510Z,13.90
2019-06-07T01:16:56.327Z,13.90
2019-06-07T01:19:43.817Z,14.00
2019-06-07T01:22:45.168Z,14.00
2019-06-07T01:25:46.538Z,14.10
2019-06-07T01:28:48.316Z,14.20
2019-06-07T01:31:49.693Z,14.20
2019-06-07T01:34:51.054Z,14.10
2019-06-07T01:37:52.338Z,14.00
2019-06-07T01:40:53.594Z,14.00
2019-06-07T01:43:54.955Z,14.00
2019-06-07T01:46:56.194Z,13.90
2019-06-07T01:49:57.468Z,13.90
2019-06-07T01:52:58.698Z,14.00
2019-06-07T01:56:00.538Z,13.90
2019-06-07T01:59:01.864Z,13.90
2019-06-07T02:02:03.860Z,13.90
2019-06-07T02:05:07.410Z,13.80
2019-06-07T02:08:08.676Z,13.90
2019-06-07T02:11:10.057Z,13.90
2019-06-07T02:14:11.422Z,14.00
2019-06-07T02:17:12.656Z,14.00
2019-06-07T02:20:14.564Z,14.10
2019-06-07T02:23:15.870Z,14.10
2019-06-07T02:26:17.265Z,14.20
2019-06-07T02:29:18.609Z,14.20
2019-06-07T02:32:21.577Z,14.20
2019-06-07T02:35:26.403Z,14.20
2019-06-07T02:38:29.712Z,14.20
2019-06-07T02:41:35.941Z,14.20
2019-06-07T02:44:38.544Z,14.20
2019-06-07T02:47:38.070Z,14.10
2019-06-07T02:50:39.080Z,14.10
2019-06-07T02:53:40.581Z,14.20
2019-06-07T02:56:56.096Z,14.30
2019-06-07T03:00:05.775Z,14.30
2019-06-07T03:02:48.318Z,14.30
2019-06-07T03:05:49.564Z,14.40
2019-06-07T03:08:51.742Z,14.40
2019-06-07T03:12:14.725Z,14.50
2019-06-07T03:15:32.707Z,14.50
2019-06-07T03:18:41.622Z,14.60
2019-06-07T03:21:42.920Z,14.70
2019-06-07T03:24:44.454Z,14.80
2019-06-07T03:27:49.905Z,14.90
2019-06-07T03:31:01.683Z,15.00
2019-06-07T03:33:53.554Z,15.00
2019-06-07T03:36:54.793Z,15.10
2019-06-07T03:39:56.099Z,15.20
2019-06-07T03:42:57.335Z,15.30
2019-06-07T03:45:58.653Z,15.40
2019-06-07T03:48:59.876Z,15.50
2019-06-07T03:52:01.508Z,15.60
2019-06-07T03:55:04.658Z,15.60
2019-06-07T04:01:09.079Z,15.80
2019-06-07T04:04:10.762Z,16.00
2019-06-07T04:07:12.010Z,16.10
2019-06-07T04:10:13.586Z,16.20
2019-06-07T04:13:15.405Z,16.40
2019-06-07T04:16:16.698Z,16.50
2019-06-07T04:19:18.064Z,16.60
2019-06-07T04:22:19.366Z,16.70
2019-06-07T04:25:20.610Z,16.80
2019-06-07T04:28:22.306Z,17.00
2019-06-07T04:31:23.650Z,17.10
2019-06-07T04:34:25.268Z,17.20
2019-06-07T04:37:28.254Z,17.30
2019-06-07T04:40:39.067Z,17.40
2019-06-07T04:43:41.159Z,17.50
2019-06-07T04:46:45.846Z,17.60
2019-06-07T04:49:47.483Z,17.70
2019-06-07T04:52:49.125Z,17.80
2019-06-07T04:55:50.374Z,17.90
2019-06-07T04:58:51.633Z,18.00
2019-06-07T05:01:52.981Z,18.10
2019-06-07T05:04:54.242Z,18.20
2019-06-07T05:07:55.864Z,18.30
2019-06-07T05:10:57.485Z,18.50
2019-06-07T05:13:58.711Z,18.60
2019-06-07T05:16:59.981Z,18.70
2019-06-07T05:20:01.735Z,18.80
2019-06-07T05:23:03.046Z,18.90
2019-06-07T05:26:04.290Z,19.00
2019-06-07T05:29:05.565Z,19.00
2019-06-07T05:32:07.704Z,19.00
2019-06-07T05:35:11.091Z,18.90
2019-06-07T05:38:12.420Z,18.80
2019-06-07T05:41:13.795Z,18.80
2019-06-07T05:44:15.303Z,19.00
2019-06-07T05:47:16.635Z,19.10
2019-06-07T05:50:38.391Z,19.30
2019-06-07T05:53:21.151Z,19.50
2019-06-07T05:56:22.510Z,19.60
2019-06-07T05:59:23.777Z,19.80
2019-06-07T06:02:25.226Z,19.90
2019-06-07T06:05:34.570Z,20.00
2019-06-07T06:08:30.151Z,20.20
2019-06-07T06:11:47.096Z,20.20
2019-06-07T06:14:35.369Z,20.40
2019-06-07T06:17:42.676Z,20.50
2019-06-07T06:21:05.331Z,20.60
2019-06-07T06:23:47.599Z,20.60
2019-06-07T06:26:54.085Z,20.70
2019-06-07T06:29:52.428Z,20.80
2019-06-07T06:32:58.108Z,20.70
2019-06-07T06:35:56.754Z,20.70
2019-06-07T06:38:58.296Z,20.90
2019-06-07T06:42:03.740Z,21.00
2019-06-07T06:45:07.518Z,21.10
2019-06-07T06:48:08.814Z,21.20
2019-06-07T06:51:10.162Z,21.40
2019-06-07T06:54:11.440Z,21.60
2019-06-07T06:57:19.504Z,21.80
2019-06-07T07:00:16.475Z,21.90
2019-06-07T07:06:26.402Z,22.10
2019-06-07T07:09:25.130Z,22.20
2019-06-07T07:12:26.540Z,22.20
2019-06-07T07:15:27.875Z,22.30
2019-06-07T07:18:29.164Z,22.30
2019-06-07T07:21:30.664Z,22.40
2019-06-07T07:24:31.915Z,22.40
2019-06-07T07:27:55.395Z,22.50
2019-06-07T07:30:57.381Z,22.60
2019-06-07T07:37:03.943Z,22.70
2019-06-07T07:40:54.881Z,22.70
2019-06-07T07:43:10.929Z,22.90
2019-06-07T07:46:29.798Z,23.00
2019-06-07T07:49:15.661Z,23.10
2019-06-07T07:52:16.909Z,23.10
2019-06-07T07:55:18.330Z,23.10
2019-06-07T07:58:19.577Z,23.20
2019-06-07T08:01:20.831Z,23.40
2019-06-07T08:04:39.719Z,23.40
2019-06-07T08:07:25.163Z,23.50
2019-06-07T08:10:26.617Z,23.60
2019-06-07T08:13:28.114Z,23.60
2019-06-07T08:16:30.701Z,23.50
2019-06-07T08:19:32.096Z,23.60
2019-06-07T08:22:35.333Z,23.80
2019-06-07T08:25:36.617Z,23.80
2019-06-07T08:28:38.561Z,24.00
2019-06-07T08:31:40.197Z,24.00
2019-06-07T08:34:42.739Z,24.20
2019-06-07T08:38:14.816Z,24.40
2019-06-07T08:40:53.660Z,24.20
2019-06-07T08:43:53.212Z,24.10
2019-06-07T08:47:13.956Z,24.20
2019-06-07T08:50:04.370Z,24.40
2019-06-07T08:53:11.544Z,24.30
2019-06-07T08:56:09.853Z,24.30
2019-06-07T08:59:11.383Z,24.30
2019-06-07T09:02:23.228Z,24.50
2019-06-07T09:05:14.250Z,24.50
2019-06-07T09:08:29.072Z,24.50
2019-06-07T09:11:18.585Z,24.90
2019-06-07T09:14:19.958Z,25.30
2019-06-07T09:17:22.496Z,25.20
2019-06-07T09:20:45.314Z,25.40
2019-06-07T09:23:46.557Z,25.40
2019-06-07T09:26:49.855Z,25.20
2019-06-07T09:29:51.295Z,25.50
2019-06-07T09:32:53.310Z,25.70
2019-06-07T09:35:56.209Z,26.10
2019-06-07T09:39:02.571Z,25.90
2019-06-07T09:42:08.384Z,25.70
2019-06-07T09:45:08.931Z,25.70
2019-06-07T09:48:13.823Z,25.90
2019-06-07T09:51:19.734Z,25.80
2019-06-07T09:55:02.340Z,26.00
2019-06-07T09:57:19.137Z,26.10
2019-06-07T10:00:39.893Z,26.10
2019-06-07T10:03:25.854Z,26.60
2019-06-07T10:06:27.257Z,26.60
2019-06-07T10:12:31.863Z,26.10
2019-06-07T10:15:33.121Z,26.40
2019-06-07T10:18:34.532Z,26.60
2019-06-07T10:21:35.943Z,26.10
2019-06-07T10:24:37.193Z,25.70
2019-06-07T10:27:38.553Z,25.70
2019-06-07T10:30:40.700Z,25.90
2019-06-07T10:33:44.200Z,26.70
2019-06-07T10:36:45.346Z,27.20
2019-06-07T10:39:48.949Z,27.70
2019-06-07T10:42:50.029Z,28.40
2019-06-07T10:45:51.321Z,28.40
2019-06-07T10:48:52.562Z,27.80
2019-06-07T10:51:53.937Z,27.30
2019-06-07T10:54:55.175Z,27.00
2019-06-07T10:57:56.471Z,27.50
2019-06-07T11:00:57.828Z,27.70
2019-06-07T11:03:59.106Z,28.30
2019-06-07T11:07:00.389Z,28.40
2019-06-07T11:10:11.689Z,28.70
2019-06-07T11:13:10.392Z,28.20
2019-06-07T11:16:13.082Z,28.40
2019-06-07T11:19:17.808Z,28.50
2019-06-07T11:22:18.593Z,28.20
2019-06-07T11:25:20.326Z,28.50
2019-06-07T11:28:21.590Z,29.10
2019-06-07T11:31:23.042Z,30.00
2019-06-07T11:34:24.857Z,30.60
2019-06-07T11:37:26.092Z,30.60
2019-06-07T11:40:35.039Z,31.40
2019-06-07T11:43:30.982Z,31.70
2019-06-07T11:46:32.362Z,30.70
2019-06-07T11:49:33.975Z,30.10
2019-06-07T11:52:35.345Z,29.50
2019-06-07T11:55:37.193Z,29.80
2019-06-07T11:58:38.661Z,31.30
2019-06-07T12:01:40.127Z,32.50
2019-06-07T12:04:41.393Z,32.10
2019-06-07T12:07:42.647Z,31.10
2019-06-07T12:10:44.054Z,30.30
2019-06-07T12:13:45.407Z,29.40
2019-06-07T12:16:47.746Z,29.30
2019-06-07T12:19:49.077Z,29.60
2019-06-07T12:22:51.016Z,30.90
2019-06-07T12:25:52.982Z,31.80
2019-06-07T12:28:54.296Z,31.10
2019-06-07T12:31:55.638Z,30.90
2019-06-07T12:34:56.906Z,31.10
2019-06-07T12:38:01.115Z,32.00
2019-06-07T12:41:03.530Z,33.40
2019-06-07T12:44:05.195Z,33.50
2019-06-07T12:47:06.529Z,33.60
2019-06-07T12:50:09.094Z,34.20
2019-06-07T12:53:10.770Z,34.20
2019-06-07T12:56:12.006Z,33.70
2019-06-07T12:59:13.889Z,33.60
2019-06-07T13:02:16.409Z,33.90
2019-06-07T13:05:19.829Z,34.30
2019-06-07T13:08:22.039Z,34.30
2019-06-07T13:11:29.588Z,33.10
2019-06-07T13:14:28.510Z,32.60
2019-06-07T13:17:29.963Z,32.90
2019-06-07T13:20:33.602Z,33.00
2019-06-07T13:23:35.483Z,32.80
2019-06-07T13:26:38.229Z,32.10
2019-06-07T13:29:40.008Z,31.70
2019-06-07T13:32:41.378Z,32.30
2019-06-07T13:35:46.918Z,33.00
2019-06-07T13:38:48.929Z,34.10
2019-06-07T13:41:52.942Z,34.50
2019-06-07T13:44:54.729Z,35.10
2019-06-07T13:47:56.327Z,34.40
2019-06-07T13:50:59.126Z,32.80
2019-06-07T13:54:01.345Z,31.40
2019-06-07T13:57:05.016Z,30.40
2019-06-07T14:00:11.215Z,30.10
2019-06-07T14:03:13.178Z,29.90
2019-06-07T14:06:18.956Z,29.50
2019-06-07T14:09:21.214Z,30.10
2019-06-07T14:12:24.158Z,31.00
2019-06-07T14:15:26.479Z,31.80
2019-06-07T14:18:28.743Z,32.50
2019-06-07T14:21:35.592Z,32.10
2019-06-07T14:24:37.746Z,31.70
2019-06-07T14:27:41.057Z,31.50
2019-06-07T14:30:42.872Z,32.10
2019-06-07T14:33:44.154Z,31.60
2019-06-07T14:36:45.815Z,30.80
2019-06-07T14:39:48.604Z,30.40
2019-06-07T14:42:50.206Z,29.70
2019-06-07T14:45:52.385Z,28.80
2019-06-07T14:48:57.063Z,27.60
2019-06-07T14:51:58.581Z,26.50
2019-06-07T14:55:00.206Z,25.70
2019-06-07T14:58:01.989Z,25.30
2019-06-07T15:01:03.692Z,25.00
2019-06-07T15:04:05.132Z,25.20
2019-06-07T15:07:08.576Z,25.60
2019-06-07T15:10:11.483Z,25.80
2019-06-07T15:13:12.901Z,26.10
2019-06-07T15:16:15.216Z,26.30
2019-06-07T15:19:16.463Z,26.50
2019-06-07T15:22:18.179Z,26.50
2019-06-07T15:25:19.983Z,26.60
2019-06-07T15:28:25.719Z,26.70
2019-06-07T15:31:27.912Z,26.70
2019-06-07T15:34:32.274Z,26.80
2019-06-07T15:37:34.570Z,26.90
2019-06-07T15:40:37.419Z,26.90
2019-06-07T15:43:39.375Z,26.90
2019-06-07T15:46:44.294Z,26.90
2019-06-07T15:49:48.005Z,26.70
2019-06-07T15:52:54.436Z,26.70
2019-06-07T15:55:56.776Z,26.90
2019-06-07T15:58:58.185Z,27.40
2019-06-07T16:01:59.749Z,28.30
2019-06-07T16:05:01.183Z,29.20
2019-06-07T16:08:04.180Z,30.30
2019-06-07T16:11:05.618Z,31.30
2019-06-07T16:14:07.105Z,30.90
2019-06-07T16:17:08.488Z,30.20
2019-06-07T16:20:10.249Z,29.60
2019-06-07T16:23:12.383Z,28.80
2019-06-07T16:26:14.530Z,28.60
2019-06-07T16:29:16.134Z,28.50
2019-06-07T16:32:17.502Z,28.10
2019-06-07T16:35:19.679Z,27.70
2019-06-07T16:38:21.123Z,27.30
2019-06-07T16:41:23.091Z,26.80
2019-06-07T16:44:25.508Z,26.10
2019-06-07T16:47:27.368Z,25.50
2019-06-07T16:50:28.842Z,25.10
2019-06-07T16:53:30.902Z,24.50
2019-06-07T16:56:32.575Z,24.10
2019-06-07T16:59:34.334Z,24.00
2019-06-07T17:02:36.071Z,23.90
2019-06-07T17:05:37.803Z,23.90
2019-06-07T17:08:40.154Z,23.90
2019-06-07T17:11:42.333Z,24.00
2019-06-07T17:14:44.643Z,23.90
2019-06-07T17:17:47.200Z,23.80
2019-06-07T17:20:49.568Z,23.70
2019-06-07T17:23:52.520Z,23.60
2019-06-07T17:26:55.639Z,23.50
2019-06-07T17:30:00.701Z,23.40
2019-06-07T17:33:04.055Z,23.40
2019-06-07T17:36:06.118Z,23.40
2019-06-07T17:39:09.535Z,23.40
2019-06-07T17:42:12.831Z,23.30
2019-06-07T17:45:15.858Z,23.20
2019-06-07T17:48:24.001Z,23.20
2019-06-07T17:51:28.191Z,23.10
2019-06-07T17:54:31.632Z,23.00
2019-06-07T17:57:35.347Z,23.10
2019-06-07T18:00:44.644Z,23.20
2019-06-07T18:03:47.080Z,23.30
2019-06-07T18:06:51.490Z,23.30
2019-06-07T18:09:55.374Z,23.30
2019-06-07T18:12:57.700Z,23.20
2019-06-07T18:15:59.935Z,22.90
2019-06-07T18:19:03.171Z,22.70
2019-06-07T18:22:06.101Z,22.40
2019-06-07T18:25:09.058Z,22.20
2019-06-07T18:28:12.206Z,22.10
2019-06-07T18:31:15.706Z,22.00
2019-06-07T18:34:19.506Z,21.90
2019-06-07T18:37:25.073Z,21.80
2019-06-07T18:40:27.633Z,21.60
2019-06-07T18:43:33.309Z,21.50
2019-06-07T18:46:36.235Z,21.30
2019-06-07T18:49:38.602Z,21.10
2019-06-07T18:52:43.059Z,21.00
2019-06-07T18:55:44.630Z,20.90
2019-06-07T18:58:47.116Z,20.80
2019-06-07T19:01:50.006Z,20.70
2019-06-07T19:04:52.268Z,20.60
2019-06-07T19:07:54.706Z,20.50
2019-06-07T19:10:56.904Z,20.40
2019-06-07T19:13:59.332Z,20.20
2019-06-07T19:17:01.440Z,20.10
2019-06-07T19:20:07.943Z,20.00
2019-06-07T19:23:12.756Z,19.90
2019-06-07T19:26:14.951Z,19.80
2019-06-07T19:29:18.506Z,19.70
2019-06-07T19:32:21.170Z,19.60
2019-06-07T19:35:23.280Z,19.40
2019-06-07T19:38:25.100Z,19.30
2019-06-07T19:41:26.961Z,19.20
2019-06-07T19:44:28.888Z,19.10
2019-06-07T19:47:30.994Z,19.00
2019-06-07T19:50:32.730Z,18.90
2019-06-07T19:53:34.867Z,18.90
2019-06-07T19:56:38.730Z,18.80
2019-06-07T19:59:40.650Z,18.70
2019-06-07T20:02:42.372Z,18.60
2019-06-07T20:05:45.142Z,18.60
2019-06-07T20:08:47.066Z,18.50
2019-06-07T20:11:48.555Z,18.40
2019-06-07T20:14:53.739Z,18.40
2019-06-07T20:17:55.092Z,18.30
2019-06-07T20:21:02.610Z,18.30
2019-06-07T20:24:22.800Z,18.20
2019-06-07T20:27:08.559Z,18.20
2019-06-07T20:30:11.457Z,18.10
2019-06-07T20:33:12.706Z,18.10
2019-06-07T20:36:14.330Z,18.10
2019-06-07T20:39:15.679Z,18.00
2019-06-07T20:42:17.082Z,18.00
2019-06-07T20:45:32.584Z,18.00
2019-06-07T20:48:21.775Z,17.90
2019-06-07T20:51:23.007Z,17.80
2019-06-07T20:54:24.654Z,17.80
2019-06-07T20:57:26.032Z,17.70
2019-06-07T21:00:27.839Z,17.70
2019-06-07T21:03:29.090Z,17.70
2019-06-07T21:06:30.855Z,17.70
2019-06-07T21:09:32.458Z,17.60
2019-06-07T21:12:33.759Z,17.60
2019-06-07T21:15:47.949Z,17.60
2019-06-07T21:18:39.180Z,17.60
2019-06-07T21:21:40.612Z,17.60
2019-06-07T21:24:41.977Z,17.60
2019-06-07T21:27:43.313Z,17.50
2019-06-07T21:30:44.701Z,17.40
2019-06-07T21:33:46.567Z,17.40
2019-06-07T21:36:48.171Z,17.40
2019-06-07T21:39:50.039Z,17.40
2019-06-07T21:42:51.842Z,17.40
2019-06-07T21:46:04.692Z,17.40
2019-06-07T21:48:56.809Z,17.30
2019-06-07T21:51:58.293Z,17.30
2019-06-07T21:54:59.528Z,17.20
2019-06-07T21:58:01.162Z,17.20
2019-06-07T22:01:09.994Z,17.10
2019-06-07T22:04:11.809Z,17.10
2019-06-07T22:07:13.660Z,17.00
2019-06-07T22:10:15.407Z,17.00
2019-06-07T22:13:16.715Z,16.90
2019-06-07T22:16:28.613Z,16.90
2019-06-07T22:19:21.227Z,16.90
2019-06-07T22:22:22.857Z,16.80
2019-06-07T22:25:25.056Z,16.80
2019-06-07T22:28:26.454Z,16.70
2019-06-07T22:31:31.017Z,16.70
2019-06-07T22:34:34.115Z,16.60
2019-06-07T22:37:35.377Z,16.60
2019-06-07T22:40:36.619Z,16.60
2019-06-07T22:43:37.918Z,16.50
2019-06-07T22:46:41.073Z,16.50
2019-06-07T22:49:42.517Z,16.40
2019-06-07T22:52:43.748Z,16.40
2019-06-07T22:55:47.061Z,16.40
2019-06-07T22:58:48.317Z,16.30
2019-06-07T23:01:49.571Z,16.30
2019-06-07T23:04:50.834Z,16.30
2019-06-07T23:07:52.238Z,16.20
2019-06-07T23:10:53.599Z,16.20
2019-06-07T23:13:54.965Z,16.20
2019-06-07T23:16:56.412Z,16.10
2019-06-07T23:19:57.891Z,16.10
2019-06-07T23:23:01.077Z,16.00
2019-06-07T23:26:02.560Z,15.90
2019-06-07T23:29:04.425Z,15.90
2019-06-07T23:32:05.722Z,15.90
2019-06-07T23:35:07.068Z,15.80
2019-06-07T23:38:08.338Z,15.80
2019-06-07T23:41:09.605Z,15.80
2019-06-07T23:44:13.305Z,15.90
2019-06-07T23:47:16.988Z,15.80
2019-06-07T23:50:17.988Z,15.80
2019-06-07T23:53:19.948Z,15.70
2019-06-07T23:56:23.279Z,15.70
2019-06-07T23:59:24.615Z,15.70
